Time;durP1;ratioP1;P1;durP2;ratioP2;P2;SDS_P1;SDS_P2;PMS_P1;PMS_P2;Temp;Humidity;BMP_temperature;BMP_pressure;BME280_temperature;BME280_humidity;BME280_pressure;Samples;Min_cycle;Max_cycle;Signal;HPM_P1;HPM_P2
2021/04/13 00:01:20;;;;;;;13.27;10.40;;;5.60;75.60;;;;;;5034907;28;20936;-69
2021/04/13 00:03:48;;;;;;;11.60;10.43;;;5.60;76.40;;;;;;5035200;28;20525;-69
2021/04/13 00:06:18;;;;;;;13.30;10.87;;;5.50;77.20;;;;;;5035043;28;20486;-69
2021/04/13 00:08:52;;;;;;;15.37;12.00;;;5.40;77.50;;;;;;5035153;28;20427;-69
2021/04/13 00:11:19;;;;;;;13.87;11.17;;;5.40;78.30;;;;;;5035206;28;20434;-70
2021/04/13 00:13:45;;;;;;;12.67;11.47;;;5.30;78.50;;;;;;5034927;28;20443;-69
2021/04/13 00:16:15;;;;;;;13.47;12.07;;;5.30;78.70;;;;;;5034939;28;20453;-69
2021/04/13 00:18:44;;;;;;;15.93;12.23;;;5.30;78.60;;;;;;5034947;28;20867;-69
2021/04/13 00:21:16;;;;;;;13.87;12.43;;;5.20;78.10;;;;;;5034663;28;20458;-69
2021/04/13 00:23:44;;;;;;;18.93;12.00;;;5.10;78.20;;;;;;5034822;28;20433;-69
2021/04/13 00:26:18;;;;;;;12.40;11.20;;;5.10;79.20;;;;;;5034628;28;20489;-69
2021/04/13 00:28:46;;;;;;;13.97;11.57;;;5.10;79.40;;;;;;5034151;28;20442;-69
2021/04/13 00:31:20;;;;;;;12.37;11.13;;;5.10;79.30;;;;;;5034476;28;20454;-70
2021/04/13 00:33:47;;;;;;;12.90;11.47;;;5.00;78.80;;;;;;5034594;28;20493;-69
2021/04/13 00:36:16;;;;;;;13.00;11.10;;;5.00;79.20;;;;;;5034508;28;20453;-69
2021/04/13 00:38:44;;;;;;;12.50;11.20;;;5.00;79.60;;;;;;5034430;28;20470;-69
2021/04/13 00:41:15;;;;;;;12.27;10.97;;;4.90;79.40;;;;;;5034370;28;20457;-69
2021/04/13 00:43:44;;;;;;;15.03;13.13;;;4.90;79.90;;;;;;5034414;28;20457;-69
2021/04/13 00:46:12;;;;;;;13.13;11.70;;;4.90;80.20;;;;;;5034236;28;20524;-69
2021/04/13 00:48:43;;;;;;;14.33;11.83;;;5.00;80.40;;;;;;5034247;28;20794;-69
2021/04/13 00:51:14;;;;;;;12.73;11.47;;;5.00;80.10;;;;;;5034249;28;20427;-69
2021/04/13 00:53:43;;;;;;;16.77;12.10;;;5.00;79.80;;;;;;5034200;28;20437;-69
2021/04/13 00:56:13;;;;;;;12.40;11.07;;;5.00;79.50;;;;;;5034337;28;20434;-69
2021/04/13 00:58:43;;;;;;;13.17;10.80;;;5.10;79.40;;;;;;5034067;28;20450;-69
2021/04/13 01:01:15;;;;;;;12.50;10.80;;;5.10;79.30;;;;;;5034055;28;20809;-69
2021/04/13 01:03:51;;;;;;;12.77;11.10;;;5.10;79.20;;;;;;5034028;28;20484;-69
2021/04/13 01:06:23;;;;;;;13.47;11.93;;;5.10;78.90;;;;;;5033927;28;20502;-69
2021/04/13 01:09:00;;;;;;;16.60;12.60;;;5.10;78.80;;;;;;5033962;28;20462;-69
2021/04/13 01:11:29;;;;;;;15.53;11.60;;;5.10;78.70;;;;;;5033850;28;20426;-69
2021/04/13 01:13:59;;;;;;;18.33;11.83;;;5.10;78.60;;;;;;5033813;28;20544;-69
2021/04/13 01:16:28;;;;;;;18.60;12.53;;;5.10;78.70;;;;;;5034061;28;20453;-69
2021/04/13 01:18:57;;;;;;;11.80;10.57;;;5.10;78.60;;;;;;5033732;28;20525;-69
2021/04/13 01:21:35;;;;;;;19.40;12.37;;;5.10;78.40;;;;;;5033509;28;20484;-69
2021/04/13 01:24:10;;;;;;;15.40;11.83;;;5.00;77.90;;;;;;5033765;28;20474;-69
2021/04/13 01:26:41;;;;;;;15.27;10.77;;;5.00;77.80;;;;;;5033643;28;20462;-69
2021/04/13 01:29:09;;;;;;;15.30;11.23;;;5.00;77.80;;;;;;5033673;28;20434;-69
2021/04/13 01:31:44;;;;;;;13.93;12.43;;;4.90;77.80;;;;;;5033533;28;20462;-69
2021/04/13 01:34:17;;;;;;;15.40;12.93;;;4.90;77.90;;;;;;5034112;28;20445;-69
2021/04/13 01:36:47;;;;;;;17.20;12.10;;;4.90;77.90;;;;;;5033625;28;20476;-69
2021/04/13 01:39:19;;;;;;;16.83;12.57;;;4.90;78.00;;;;;;5032725;28;20825;-69
2021/04/13 01:41:58;;;;;;;12.93;11.43;;;4.80;78.10;;;;;;5033498;28;20473;-69
2021/04/13 01:44:28;;;;;;;17.73;12.83;;;4.80;78.30;;;;;;5033541;28;20440;-69
2021/04/13 01:46:55;;;;;;;19.80;13.80;;;4.80;78.60;;;;;;5033661;28;20469;-69
2021/04/13 01:49:23;;;;;;;19.93;14.27;;;4.70;78.90;;;;;;5033671;28;20804;-69
2021/04/13 01:51:50;;;;;;;18.10;13.57;;;4.70;79.00;;;;;;5033345;28;20477;-69
2021/04/13 01:54:19;;;;;;;19.33;13.43;;;4.70;79.40;;;;;;5033393;28;20450;-69
2021/04/13 01:56:54;;;;;;;17.20;13.77;;;4.70;79.60;;;;;;5033396;28;20600;-69
2021/04/13 01:59:24;;;;;;;14.50;12.70;;;4.60;79.50;;;;;;5033409;28;20438;-69
2021/04/13 02:01:56;;;;;;;18.00;13.97;;;4.60;79.50;;;;;;5033484;28;20474;-69
2021/04/13 02:04:26;;;;;;;16.50;13.93;;;4.60;79.20;;;;;;5033375;28;20534;-69
2021/04/13 02:07:00;;;;;;;18.37;13.83;;;4.60;79.10;;;;;;5033240;28;20469;-69
2021/04/13 02:09:36;;;;;;;18.37;13.73;;;4.60;78.90;;;;;;5032983;28;20981;-69
2021/04/13 02:12:07;;;;;;;13.47;11.77;;;4.60;78.80;;;;;;5033183;28;20571;-69
2021/04/13 02:14:37;;;;;;;14.47;12.97;;;4.50;78.80;;;;;;5033830;28;20433;-69
2021/04/13 02:17:07;;;;;;;18.70;15.90;;;4.50;79.10;;;;;;5033175;28;20443;-69
2021/04/13 02:19:35;;;;;;;15.63;13.97;;;4.50;80.20;;;;;;5033198;28;20434;-69
2021/04/13 02:22:05;;;;;;;17.63;15.77;;;4.50;79.90;;;;;;5032790;28;21101;-69
2021/04/13 02:24:34;;;;;;;16.87;15.07;;;4.50;80.00;;;;;;5032857;28;20911;-69
2021/04/13 02:27:07;;;;;;;16.77;14.87;;;4.50;80.10;;;;;;5033023;28;20524;-69
2021/04/13 02:29:38;;;;;;;19.43;16.90;;;4.50;80.00;;;;;;5033091;28;20438;-69
2021/04/13 02:32:12;;;;;;;18.33;14.70;;;4.50;80.00;;;;;;5033023;28;20472;-69
2021/04/13 02:34:42;;;;;;;19.17;16.10;;;4.50;80.30;;;;;;5033090;28;20432;-69
2021/04/13 02:37:13;;;;;;;18.73;16.73;;;4.40;80.20;;;;;;5032968;28;20450;-68
2021/04/13 02:39:42;;;;;;;19.17;16.33;;;4.40;79.80;;;;;;5033029;28;20425;-68
2021/04/13 02:42:14;;;;;;;20.90;15.67;;;4.40;79.70;;;;;;5032596;28;20988;-69
2021/04/13 02:44:41;;;;;;;17.03;15.07;;;4.40;79.90;;;;;;5032695;28;20439;-69
2021/04/13 02:47:11;;;;;;;18.80;15.50;;;4.40;80.30;;;;;;5032895;28;20479;-69
2021/04/13 02:49:41;;;;;;;19.60;16.33;;;4.40;79.80;;;;;;5032902;28;20449;-69
2021/04/13 02:52:13;;;;;;;18.43;15.60;;;4.30;79.70;;;;;;5036207;28;20462;-69
2021/04/13 02:54:44;;;;;;;18.80;16.17;;;4.30;79.80;;;;;;5036175;28;20436;-68
2021/04/13 02:57:17;;;;;;;18.93;16.80;;;4.30;80.00;;;;;;5036983;28;20470;-68
2021/04/13 02:59:43;;;;;;;17.47;15.63;;;4.30;80.20;;;;;;5036405;28;20433;-68
2021/04/13 03:02:15;;;;;;;19.57;16.07;;;4.30;80.20;;;;;;5036217;28;20481;-69
2021/04/13 03:04:45;;;;;;;18.90;16.80;;;4.30;80.40;;;;;;5036264;28;20441;-69
2021/04/13 03:07:13;;;;;;;17.37;15.50;;;4.20;80.10;;;;;;5036132;28;20511;-69
2021/04/13 03:09:41;;;;;;;21.03;16.77;;;4.20;80.00;;;;;;5035876;28;20507;-69
2021/04/13 03:12:10;;;;;;;17.80;15.10;;;4.20;79.80;;;;;;5036074;28;20471;-69
2021/04/13 03:14:40;;;;;;;19.30;16.67;;;4.20;79.70;;;;;;5036136;28;20432;-69
2021/04/13 03:17:10;;;;;;;20.20;16.30;;;4.10;79.60;;;;;;5035700;28;20823;-69
2021/04/13 03:19:38;;;;;;;19.50;17.30;;;4.00;79.60;;;;;;5036008;28;20440;-69
2021/04/13 03:22:06;;;;;;;18.90;15.80;;;4.00;79.90;;;;;;5035747;28;20485;-69
2021/04/13 03:24:36;;;;;;;20.10;17.00;;;4.00;80.20;;;;;;5035678;28;20938;-69
2021/04/13 03:27:06;;;;;;;18.90;15.20;;;3.90;80.10;;;;;;5035771;28;20481;-68
2021/04/13 03:29:49;;;;;;;17.87;14.83;;;3.90;80.30;;;;;;5035526;28;20977;-68
2021/04/13 03:32:19;;;;;;;23.27;16.47;;;3.90;80.40;;;;;;5035795;28;20814;-69
2021/04/13 03:34:46;;;;;;;17.03;15.00;;;3.90;80.80;;;;;;5035466;28;20902;-68
2021/04/13 03:37:15;;;;;;;20.97;16.10;;;3.90;80.60;;;;;;5035552;28;20451;-68
2021/04/13 03:39:43;;;;;;;16.10;14.23;;;3.90;80.70;;;;;;5035756;28;20441;-68
2021/04/13 03:42:16;;;;;;;22.07;15.33;;;3.90;80.50;;;;;;5035520;28;20466;-69
2021/04/13 03:44:44;;;;;;;18.30;16.30;;;3.90;80.80;;;;;;5035576;28;20465;-69
2021/04/13 03:47:14;;;;;;;20.67;14.83;;;4.00;80.90;;;;;;5035389;28;20488;-69
2021/04/13 03:49:43;;;;;;;20.37;15.80;;;4.00;81.00;;;;;;5035484;28;20448;-69
2021/04/13 03:52:14;;;;;;;17.83;15.20;;;4.00;81.00;;;;;;5035048;28;21013;-69
2021/04/13 03:54:41;;;;;;;18.13;15.90;;;4.00;80.90;;;;;;5035118;28;20903;-68
2021/04/13 03:57:09;;;;;;;18.17;14.30;;;3.90;81.10;;;;;;5035402;28;20445;-68
2021/04/13 03:59:39;;;;;;;20.57;15.83;;;3.90;81.20;;;;;;5035309;28;20487;-68
2021/04/13 04:02:07;;;;;;;17.67;14.00;;;3.90;80.90;;;;;;5034312;28;20472;-68
2021/04/13 04:04:38;;;;;;;18.90;16.57;;;3.70;80.70;;;;;;5035327;28;20487;-68
2021/04/13 04:07:20;;;;;;;18.87;14.73;;;3.70;81.50;;;;;;5035155;28;20464;-68
2021/04/13 04:09:47;;;;;;;18.00;14.73;;;3.70;82.10;;;;;;5035116;28;20437;-68
2021/04/13 04:12:20;;;;;;;19.17;15.60;;;3.70;82.50;;;;;;5034675;28;20472;-69
2021/04/13 04:14:59;;;;;;;20.13;15.60;;;3.70;82.50;;;;;;5034996;28;20460;-68
2021/04/13 04:17:28;;;;;;;16.37;14.67;;;3.70;81.90;;;;;;5035205;28;20443;-68
2021/04/13 04:19:56;;;;;;;17.93;14.70;;;3.60;81.90;;;;;;5034797;28;20526;-68
2021/04/13 04:22:24;;;;;;;18.20;14.23;;;3.60;81.90;;;;;;5034606;28;20527;-68
2021/04/13 04:24:52;;;;;;;18.10;15.07;;;3.70;82.30;;;;;;5034802;28;20877;-68
2021/04/13 04:27:27;;;;;;;17.23;14.00;;;3.70;82.10;;;;;;5034335;28;20868;-68
2021/04/13 04:30:09;;;;;;;16.97;14.17;;;3.80;82.20;;;;;;5034667;28;20438;-68
2021/04/13 04:32:43;;;;;;;17.23;13.77;;;3.80;82.10;;;;;;5034232;28;21046;-68
2021/04/13 04:35:29;;;;;;;21.50;14.83;;;3.90;82.10;;;;;;5034285;28;20574;-68
2021/04/13 04:38:04;;;;;;;15.80;12.33;;;3.90;82.10;;;;;;5034197;28;20441;-68
2021/04/13 04:40:52;;;;;;;21.47;15.00;;;3.90;81.90;;;;;;5034313;28;20440;-68
2021/04/13 04:43:37;;;;;;;19.13;14.73;;;3.90;81.70;;;;;;5034368;28;20626;-68
2021/04/13 04:46:04;;;;;;;20.20;13.97;;;3.90;81.60;;;;;;5034310;28;20524;-68
2021/04/13 04:48:33;;;;;;;20.20;14.80;;;3.70;81.10;;;;;;5034305;28;20799;-68
2021/04/13 04:51:02;;;;;;;16.77;14.37;;;3.60;81.40;;;;;;5034230;28;20447;-68
2021/04/13 04:53:30;;;;;;;17.70;15.63;;;3.60;81.70;;;;;;5033841;28;20992;-68
2021/04/13 04:55:59;;;;;;;17.23;14.10;;;3.60;82.00;;;;;;5034148;28;20448;-68
2021/04/13 04:58:25;;;;;;;20.83;13.63;;;3.60;82.60;;;;;;5033784;28;20447;-67
2021/04/13 05:00:53;;;;;;;18.33;14.10;;;3.70;82.90;;;;;;5034049;28;20471;-67
2021/04/13 05:03:21;;;;;;;16.03;13.40;;;3.70;82.90;;;;;;5034005;28;20470;-68
2021/04/13 05:05:48;;;;;;;14.50;12.30;;;3.70;82.60;;;;;;5033929;28;20454;-68
2021/04/13 05:08:15;;;;;;;18.73;14.00;;;3.80;82.20;;;;;;5034063;28;20448;-68
2021/04/13 05:10:41;;;;;;;17.33;14.00;;;3.70;81.90;;;;;;5033677;28;20511;-69
2021/04/13 05:13:07;;;;;;;19.10;15.40;;;3.70;82.00;;;;;;5034265;28;20556;-68
2021/04/13 05:15:33;;;;;;;17.27;13.80;;;3.70;81.70;;;;;;5033947;28;20437;-68
2021/04/13 05:18:01;;;;;;;22.23;13.90;;;3.70;81.80;;;;;;5033547;28;20998;-68
2021/04/13 05:20:28;;;;;;;17.87;13.43;;;3.70;81.70;;;;;;5033733;28;20441;-69
2021/04/13 05:22:55;;;;;;;20.33;15.33;;;3.70;82.00;;;;;;5033586;28;20476;-69
2021/04/13 05:25:22;;;;;;;19.30;14.23;;;3.70;82.20;;;;;;5033724;28;20447;-69
2021/04/13 05:27:49;;;;;;;19.27;14.97;;;3.70;82.40;;;;;;5033621;28;20490;-68
2021/04/13 05:30:17;;;;;;;19.60;13.93;;;3.70;82.60;;;;;;5033726;28;20499;-69
2021/04/13 05:32:43;;;;;;;20.80;14.43;;;3.70;82.80;;;;;;5033505;28;20475;-68
2021/04/13 05:35:12;;;;;;;18.70;14.27;;;3.80;83.10;;;;;;5033581;28;20497;-68
2021/04/13 05:37:39;;;;;;;22.80;16.17;;;3.80;83.10;;;;;;5033789;28;20788;-69
2021/04/13 05:40:10;;;;;;;20.23;15.07;;;3.80;83.10;;;;;;5033523;28;20452;-69
2021/04/13 05:42:37;;;;;;;20.33;15.43;;;3.80;83.20;;;;;;5033825;28;20472;-69
2021/04/13 05:45:07;;;;;;;22.27;16.83;;;3.80;83.20;;;;;;5033575;28;20452;-69
2021/04/13 05:47:37;;;;;;;21.93;15.27;;;3.90;83.30;;;;;;5033264;28;20481;-69
2021/04/13 05:50:07;;;;;;;21.93;16.67;;;3.90;83.40;;;;;;5033250;28;20453;-69
2021/04/13 05:52:33;;;;;;;22.30;17.20;;;3.90;83.10;;;;;;5033582;28;20476;-69
2021/04/13 05:55:00;;;;;;;22.00;16.10;;;3.70;82.90;;;;;;5033342;28;20451;-69
2021/04/13 05:57:29;;;;;;;17.00;15.10;;;3.80;83.60;;;;;;5033451;28;20445;-69
2021/04/13 05:59:57;;;;;;;17.77;14.60;;;3.80;84.00;;;;;;5032944;28;20445;-69
2021/04/13 06:02:24;;;;;;;22.53;16.37;;;3.80;84.90;;;;;;5032912;28;20465;-69
2021/04/13 06:04:51;;;;;;;21.83;14.93;;;3.70;84.20;;;;;;5033291;28;20934;-69
2021/04/13 06:07:18;;;;;;;22.13;15.53;;;3.70;84.60;;;;;;5033224;28;20896;-69
2021/04/13 06:09:44;;;;;;;20.57;16.30;;;3.70;85.00;;;;;;5033294;28;20451;-69
2021/04/13 06:12:12;;;;;;;18.47;15.10;;;3.70;85.80;;;;;;5033174;28;20464;-69
2021/04/13 06:14:41;;;;;;;23.13;16.30;;;3.70;86.40;;;;;;5033155;28;20479;-69
2021/04/13 06:17:07;;;;;;;19.83;15.30;;;3.80;86.50;;;;;;5033829;28;20442;-69
2021/04/13 06:19:33;;;;;;;17.27;14.40;;;3.80;86.50;;;;;;5033267;28;20456;-68
2021/04/13 06:22:00;;;;;;;23.33;16.07;;;3.80;86.30;;;;;;5033093;28;20851;-69
2021/04/13 06:24:26;;;;;;;20.80;14.30;;;3.90;86.50;;;;;;5033140;28;20581;-69
2021/04/13 06:26:53;;;;;;;19.80;14.17;;;3.90;86.20;;;;;;5036197;28;20485;-69
2021/04/13 06:29:20;;;;;;;18.80;15.93;;;3.90;86.00;;;;;;5037120;28;20474;-69
2021/04/13 06:31:46;;;;;;;18.87;15.77;;;3.90;86.10;;;;;;5037254;28;20464;-69
2021/04/13 06:34:12;;;;;;;17.40;13.47;;;3.90;86.20;;;;;;5038012;28;20491;-68
2021/04/13 06:36:39;;;;;;;28.97;14.00;;;3.90;86.40;;;;;;5038111;28;20442;-69
2021/04/13 06:39:06;;;;;;;19.90;14.57;;;4.00;86.00;;;;;;5037364;28;20439;-69
2021/04/13 06:42:02;;;;;;;25.10;14.50;;;4.00;86.10;;;;;;5036995;28;20511;-69
2021/04/13 06:44:53;;;;;;;19.27;14.50;;;4.10;86.10;;;;;;5037168;28;20433;-69
2021/04/13 06:47:25;;;;;;;16.47;14.00;;;4.20;85.60;;;;;;5036950;28;20473;-69
2021/04/13 06:50:14;;;;;;;22.43;13.33;;;4.20;85.10;;;;;;5036764;28;20494;-69
2021/04/13 06:52:50;;;;;;;19.87;14.00;;;4.20;85.70;;;;;;5036618;28;20461;-69
2021/04/13 06:55:27;;;;;;;18.03;13.43;;;4.20;86.30;;;;;;5037853;28;20471;-69
2021/04/13 06:58:14;;;;;;;20.07;14.33;;;4.20;86.40;;;;;;5037492;28;20811;-69
2021/04/13 07:00:56;;;;;;;20.20;14.17;;;4.30;86.80;;;;;;5036522;28;20536;-70
2021/04/13 07:03:30;;;;;;;19.00;13.83;;;4.30;87.10;;;;;;5036333;28;20468;-70
2021/04/13 07:06:03;;;;;;;17.47;14.03;;;4.40;86.60;;;;;;5036327;28;20438;-70
2021/04/13 07:08:36;;;;;;;16.50;13.13;;;4.50;86.60;;;;;;5036352;28;20433;-70
2021/04/13 07:11:05;;;;;;;18.03;12.70;;;4.50;87.00;;;;;;5036355;28;20438;-69
2021/04/13 07:13:43;;;;;;;17.87;13.73;;;4.60;87.50;;;;;;5036079;28;20987;-69
2021/04/13 07:16:16;;;;;;;17.17;13.13;;;4.60;87.10;;;;;;5036250;28;20465;-69
2021/04/13 07:18:46;;;;;;;18.73;12.80;;;4.80;86.90;;;;;;5036106;28;20500;-69
2021/04/13 07:21:19;;;;;;;13.80;11.00;;;4.80;86.40;;;;;;5035868;28;20469;-70
2021/04/13 07:23:49;;;;;;;19.93;13.20;;;5.00;85.90;;;;;;5035821;28;20972;-70
2021/04/13 07:26:30;;;;;;;16.30;12.37;;;5.00;85.40;;;;;;5036573;28;20555;-70
2021/04/13 07:29:03;;;;;;;14.30;11.80;;;5.10;86.00;;;;;;5035962;28;20443;-69
2021/04/13 07:31:37;;;;;;;20.77;11.67;;;5.20;87.50;;;;;;5035853;28;20439;-70
2021/04/13 07:34:03;;;;;;;16.57;12.90;;;5.30;86.80;;;;;;5035728;28;20430;-70
2021/04/13 07:36:36;;;;;;;14.40;12.03;;;5.50;87.00;;;;;;5035035;28;20453;-69
2021/04/13 07:39:04;;;;;;;19.00;12.00;;;5.60;86.30;;;;;;5035018;28;21001;-69
2021/04/13 07:41:40;;;;;;;14.47;11.47;;;5.80;85.90;;;;;;5035848;28;20446;-70
2021/04/13 07:44:09;;;;;;;16.43;10.80;;;6.00;85.60;;;;;;5035569;28;20431;-68
2021/04/13 07:46:45;;;;;;;14.50;11.47;;;6.00;85.30;;;;;;5035174;28;20988;-69
2021/04/13 07:49:15;;;;;;;12.47;10.50;;;6.20;86.90;;;;;;5035532;28;20434;-69
2021/04/13 07:51:52;;;;;;;15.60;9.57;;;6.40;86.50;;;;;;5035376;28;20474;-69
2021/04/13 07:54:37;;;;;;;12.33;7.70;;;6.60;86.60;;;;;;5035410;28;20430;-69
2021/04/13 07:57:09;;;;;;;10.20;7.37;;;6.70;83.20;;;;;;5035246;28;20434;-69
2021/04/13 07:59:43;;;;;;;14.30;9.27;;;6.80;83.30;;;;;;5035145;28;20488;-69
2021/04/13 08:02:11;;;;;;;15.93;7.90;;;6.90;83.70;;;;;;5035004;28;20466;-69
2021/04/13 08:04:37;;;;;;;14.33;6.87;;;6.90;83.50;;;;;;5034984;28;20454;-69
2021/04/13 08:07:13;;;;;;;9.10;5.97;;;7.00;83.10;;;;;;5034569;28;20486;-69
2021/04/13 08:09:44;;;;;;;12.63;5.30;;;7.30;82.20;;;;;;5034906;28;20435;-69
2021/04/13 08:12:23;;;;;;;9.03;5.63;;;7.40;79.30;;;;;;5034797;28;20845;-69
2021/04/13 08:15:15;;;;;;;15.30;6.17;;;7.60;79.80;;;;;;5034789;28;20762;-69
2021/04/13 08:18:08;;;;;;;8.07;3.83;;;7.70;80.80;;;;;;5034772;28;20493;-69
2021/04/13 08:20:36;;;;;;;12.70;4.40;;;7.90;75.90;;;;;;5034578;28;20435;-69
2021/04/13 08:23:06;;;;;;;7.63;3.97;;;8.10;76.90;;;;;;5034640;28;20488;-69
2021/04/13 08:25:46;;;;;;;8.57;3.13;;;8.20;74.80;;;;;;5034807;28;20801;-69
2021/04/13 08:28:21;;;;;;;4.90;2.70;;;8.50;72.30;;;;;;5034766;28;20467;-69
2021/04/13 08:33:59;;;;;;;4.33;2.80;;;9.00;71.10;;;;;;5033469;28;20431;-69
2021/04/13 08:36:32;;;;;;;4.60;2.07;;;9.40;68.50;;;;;;5034611;28;20418;-69
2021/04/13 08:39:08;;;;;;;6.27;2.30;;;9.60;67.50;;;;;;5034553;28;20768;-69
2021/04/13 08:41:44;;;;;;;4.00;2.10;;;9.70;65.00;;;;;;5035062;28;20437;-69
2021/04/13 08:44:26;;;;;;;10.67;2.80;;;9.80;62.70;;;;;;5034514;28;20434;-69
2021/04/13 08:47:00;;;;;;;7.20;2.70;;;9.80;64.50;;;;;;5034319;28;20473;-69
2021/04/13 08:49:39;;;;;;;9.77;1.90;;;9.90;64.50;;;;;;5033988;28;20434;-70
2021/04/13 08:52:20;;;;;;;5.70;2.13;;;10.10;60.50;;;;;;5034112;28;20504;-70
2021/04/13 08:54:48;;;;;;;6.37;2.47;;;10.30;61.80;;;;;;5034174;28;20442;-70
2021/04/13 08:57:32;;;;;;;4.80;2.50;;;10.30;58.90;;;;;;5033934;28;20435;-70
2021/04/13 09:00:02;;;;;;;8.67;2.03;;;10.40;60.50;;;;;;5034638;28;20463;-69
2021/04/13 09:02:31;;;;;;;9.53;1.93;;;10.70;60.00;;;;;;5034008;28;20852;-70
2021/04/13 09:05:09;;;;;;;4.20;2.30;;;11.00;58.20;;;;;;5034011;28;20446;-70
2021/04/13 09:07:52;;;;;;;8.87;2.67;;;11.20;56.80;;;;;;5033802;28;20815;-70
2021/04/13 09:10:28;;;;;;;4.60;2.37;;;11.30;56.00;;;;;;5033925;28;20439;-70
2021/04/13 09:13:06;;;;;;;2.80;1.53;;;11.20;55.90;;;;;;5033912;28;20539;-70
2021/04/13 09:15:33;;;;;;;7.73;2.17;;;11.30;55.30;;;;;;5033919;28;20430;-70
2021/04/13 09:18:12;;;;;;;5.10;2.10;;;11.60;56.80;;;;;;5033488;28;20965;-69
2021/04/13 09:20:43;;;;;;;10.00;2.90;;;11.90;58.00;;;;;;5033624;28;20452;-70
2021/04/13 09:23:20;;;;;;;6.07;1.90;;;12.10;55.70;;;;;;5033253;28;20482;-70
2021/04/13 09:26:05;;;;;;;6.47;2.03;;;12.20;52.10;;;;;;5033736;28;20446;-70
2021/04/13 09:28:46;;;;;;;3.40;1.53;;;11.90;52.50;;;;;;5034026;28;20415;-70
2021/04/13 09:31:14;;;;;;;6.53;1.90;;;11.50;52.40;;;;;;5033296;28;20438;-69
2021/04/13 09:33:41;;;;;;;7.77;2.30;;;11.40;54.40;;;;;;5033391;28;20470;-70
2021/04/13 09:36:23;;;;;;;6.00;2.50;;;11.40;55.40;;;;;;5033605;28;20489;-70
2021/04/13 09:39:30;;;;;;;5.60;1.63;;;11.50;54.40;;;;;;5033634;28;20430;-70
2021/04/13 09:42:06;;;;;;;5.70;1.70;;;11.80;55.00;;;;;;5033421;28;20500;-70
2021/04/13 09:44:49;;;;;;;7.20;1.80;;;12.30;54.90;;;;;;5033608;28;20430;-69
2021/04/13 09:47:30;;;;;;;3.37;1.40;;;12.70;51.20;;;;;;5033411;28;20881;-70
2021/04/13 09:50:05;;;;;;;4.97;1.80;;;13.30;52.00;;;;;;5033430;28;20480;-70
2021/04/13 09:52:51;;;;;;;5.73;1.90;;;13.90;50.60;;;;;;5033403;28;20472;-70
2021/04/13 09:55:32;;;;;;;7.60;1.70;;;14.50;48.90;;;;;;5033453;28;20434;-70
2021/04/13 09:58:20;;;;;;;6.07;1.63;;;15.10;48.80;;;;;;5033318;28;20488;-70
2021/04/13 10:00:57;;;;;;;2.23;1.50;;;15.60;47.20;;;;;;5034843;28;20453;-70
2021/04/13 10:03:52;;;;;;;7.43;1.80;;;15.40;44.60;;;;;;5037443;28;20481;-70
2021/04/13 10:06:22;;;;;;;5.10;1.50;;;15.60;46.40;;;;;;5037382;28;20470;-71
2021/04/13 10:08:50;;;;;;;4.07;1.20;;;15.80;44.60;;;;;;5037365;28;20858;-70
2021/04/13 10:11:56;;;;;;;10.57;3.43;;;15.80;42.00;;;;;;5037050;28;20450;-70
2021/04/13 10:14:47;;;;;;;9.67;2.00;;;15.60;41.20;;;;;;5037370;28;20445;-70
2021/04/13 10:17:30;;;;;;;6.27;1.80;;;15.20;41.60;;;;;;5037250;28;20430;-70
2021/04/13 10:20:11;;;;;;;9.93;2.07;;;14.90;41.80;;;;;;5037121;28;20784;-70
2021/04/13 10:23:12;;;;;;;5.00;1.40;;;14.90;43.50;;;;;;5037328;28;20871;-70
2021/04/13 10:26:22;;;;;;;3.40;1.43;;;15.60;44.70;;;;;;5026700;28;20453;-70
2021/04/13 10:29:16;;;;;;;3.87;1.57;;;16.50;40.40;;;;;;5037157;28;20465;-70
2021/04/13 10:32:28;;;;;;;4.70;1.50;;;17.20;37.50;;;;;;5026805;28;20474;-71
2021/04/13 10:35:33;;;;;;;5.87;1.63;;;16.80;38.70;;;;;;5037164;28;20450;-70
2021/04/13 10:38:43;;;;;;;5.53;1.60;;;15.90;39.30;;;;;;5037001;28;20415;-70
2021/04/13 10:41:46;;;;;;;5.27;2.67;;;15.10;38.30;;;;;;5008534;28;20450;-71
2021/04/13 10:44:36;;;;;;;3.27;1.90;;;14.80;40.50;;;;;;5036860;28;20442;-70
2021/04/13 10:47:14;;;;;;;5.03;1.73;;;15.40;39.60;;;;;;5036812;28;20485;-70
2021/04/13 10:50:07;;;;;;;6.10;1.43;;;16.30;38.30;;;;;;5036824;28;20445;-71
2021/04/13 10:52:49;;;;;;;8.53;1.50;;;17.80;37.40;;;;;;5036768;28;20478;-71
2021/04/13 10:55:36;;;;;;;3.83;1.40;;;19.40;33.50;;;;;;5036795;28;20439;-70
2021/04/13 10:59:00;;;;;;;4.10;1.50;;;20.50;33.10;;;;;;5036616;28;21014;-71
2021/04/13 11:01:58;;;;;;;5.20;1.60;;;20.60;31.60;;;;;;4975406;28;20434;-71
2021/04/13 11:04:58;;;;;;;4.50;1.47;;;20.00;30.40;;;;;;4975263;28;20498;-71
2021/04/13 11:08:03;;;;;;;6.07;1.70;;;19.10;30.20;;;;;;5036561;28;20489;-70
2021/04/13 11:11:02;;;;;;;2.50;1.30;;;17.80;31.60;;;;;;5036260;28;20450;-70
2021/04/13 11:14:07;;;;;;;3.70;1.37;;;18.10;32.40;;;;;;5036170;28;20470;-70
2021/04/13 11:17:11;;;;;;;3.13;1.63;;;19.10;31.90;;;;;;5000572;28;20450;-70
2021/04/13 11:19:56;;;;;;;5.87;1.93;;;20.30;29.60;;;;;;5035778;28;20450;-70
2021/04/13 11:23:05;;;;;;;7.80;1.83;;;20.80;27.90;;;;;;5035938;28;20485;-70
2021/04/13 11:26:11;;;;;;;5.77;2.20;;;19.70;29.80;;;;;;5000271;28;20851;-71
2021/04/13 11:29:06;;;;;;;2.63;1.53;;;18.00;31.90;;;;;;5010860;28;20536;-70
2021/04/13 11:31:59;;;;;;;5.10;1.30;;;16.90;34.40;;;;;;5030490;28;20455;-70
2021/04/13 11:34:47;;;;;;;3.90;1.97;;;16.00;36.10;;;;;;5035875;28;20439;-70
2021/04/13 11:37:45;;;;;;;4.27;1.83;;;15.60;38.10;;;;;;5035744;28;20449;-70
2021/04/13 11:40:27;;;;;;;6.63;1.50;;;15.30;40.10;;;;;;5035529;28;20916;-70
2021/04/13 11:42:56;;;;;;;4.40;1.63;;;15.80;41.10;;;;;;5035365;28;20467;-70
2021/04/13 11:45:44;;;;;;;2.63;1.30;;;17.30;40.60;;;;;;5035704;28;20434;-70
2021/04/13 11:48:19;;;;;;;5.07;1.30;;;18.80;35.00;;;;;;5035249;28;20555;-70
2021/04/13 11:50:58;;;;;;;2.40;1.37;;;20.50;33.20;;;;;;5035339;28;20928;-71
2021/04/13 11:53:31;;;;;;;3.20;1.07;;;22.30;29.10;;;;;;5035604;28;20497;-71
2021/04/13 11:55:58;;;;;;;3.03;1.37;;;23.70;26.60;;;;;;5035392;28;20480;-71
2021/04/13 11:58:27;;;;;;;2.87;1.10;;;25.00;25.60;;;;;;5035477;28;20431;-71
2021/04/13 12:00:55;;;;;;;5.27;2.03;;;25.70;21.40;;;;;;5035153;28;20968;-71
2021/04/13 12:03:31;;;;;;;3.30;1.87;;;26.30;23.10;;;;;;5035376;28;20515;-71
2021/04/13 12:06:06;;;;;;;2.67;1.80;;;26.80;22.30;;;;;;5035671;28;20438;-71
2021/04/13 12:08:51;;;;;;;3.43;1.53;;;27.60;22.90;;;;;;5035094;28;20470;-71
2021/04/13 12:11:42;;;;;;;4.27;1.37;;;27.20;20.30;;;;;;5035065;28;20509;-71
2021/04/13 12:14:40;;;;;;;4.43;1.70;;;25.70;22.50;;;;;;5035101;28;20451;-71
2021/04/13 12:17:30;;;;;;;4.50;1.13;;;23.90;23.90;;;;;;5035087;28;20855;-71
2021/04/13 12:20:39;;;;;;;3.80;1.00;;;22.30;25.20;;;;;;5034733;28;20908;-71
2021/04/13 12:23:43;;;;;;;4.30;1.50;;;20.70;25.80;;;;;;5034050;28;20561;-71
2021/04/13 12:26:10;;;;;;;3.53;1.53;;;19.50;26.20;;;;;;5034966;28;20517;-70
2021/04/13 12:28:50;;;;;;;1.63;1.30;;;18.70;27.70;;;;;;5035016;28;20479;-70
2021/04/13 12:31:23;;;;;;;2.53;1.83;;;18.30;29.40;;;;;;5034820;28;20459;-71
2021/04/13 12:34:05;;;;;;;3.93;2.03;;;18.80;29.50;;;;;;5034596;28;20958;-70
2021/04/13 12:36:58;;;;;;;3.30;1.40;;;20.30;30.00;;;;;;5034701;28;20435;-71
2021/04/13 12:39:55;;;;;;;4.13;1.13;;;22.40;23.00;;;;;;5034638;28;20437;-71
2021/04/13 12:42:47;;;;;;;6.27;1.90;;;23.90;21.40;;;;;;5034513;28;20528;-71
2021/04/13 12:45:41;;;;;;;3.83;1.40;;;25.70;21.80;;;;;;5034512;28;20496;-70
2021/04/13 12:48:14;;;;;;;2.60;0.97;;;26.20;19.90;;;;;;5034368;28;20474;-71
2021/04/13 12:50:44;;;;;;;3.23;1.47;;;25.90;19.30;;;;;;5034872;28;20442;-71
2021/04/13 12:53:13;;;;;;;2.40;1.30;;;24.30;22.10;;;;;;5034085;28;20466;-71
2021/04/13 12:55:41;;;;;;;2.53;1.50;;;22.70;23.10;;;;;;5034112;28;20442;-71
2021/04/13 12:58:13;;;;;;;2.47;1.30;;;21.80;24.90;;;;;;5034251;28;20509;-71
2021/04/13 13:00:44;;;;;;;3.40;1.60;;;22.50;25.20;;;;;;5034381;28;20537;-71
2021/04/13 13:03:15;;;;;;;2.90;1.30;;;23.60;23.70;;;;;;5034113;28;20528;-71
2021/04/13 13:05:42;;;;;;;2.30;1.10;;;24.00;22.20;;;;;;5034231;28;20435;-71
2021/04/13 13:08:15;;;;;;;2.23;1.30;;;24.40;20.70;;;;;;5034145;28;20951;-71
2021/04/13 13:10:45;;;;;;;2.87;1.00;;;24.00;22.00;;;;;;5034069;28;20486;-71
2021/04/13 13:13:17;;;;;;;1.60;1.03;;;24.10;23.10;;;;;;5035089;28;20454;-71
2021/04/13 13:15:44;;;;;;;4.37;1.30;;;23.60;23.50;;;;;;5034295;28;20426;-71
2021/04/13 13:18:21;;;;;;;4.97;1.60;;;22.80;23.00;;;;;;5033567;28;20951;-71
2021/04/13 13:20:55;;;;;;;3.80;1.37;;;21.70;24.10;;;;;;5034034;28;20454;-71
2021/04/13 13:23:28;;;;;;;2.23;1.00;;;20.80;25.40;;;;;;5034172;28;20467;-71
2021/04/13 13:25:55;;;;;;;1.37;1.00;;;20.20;26.70;;;;;;5033985;28;20431;-71